LDSP/SPU METAR and TAF weather

Enter ICAO airport designator
Station Type Date Time Source
LDSP METAR 2020/02/19 14:30 UTC NOAA

LDSP 191430Z 26009KT 220V280 9999 SCT060 15/04 Q1016 NOSIG


Station Type Date Time Source
LDSP Decoded METAR 2020/02/19 14:30 UTC NOAA

Split / Resnik, Croatia (LDSP) 43-32N 016-18E 21M
Feb 19, 2020 - 09:30 AM EST / 2020.02.19 1430 UTC
Wind: from the W (260 degrees) at 10 MPH (9 KT) (direction variable):0
Visibility: greater than 7 mile(s):0
Sky conditions: partly cloudy
Temperature: 59 F (15 C)
Dew Point: 39 F (4 C)
Relative Humidity: 47%
Pressure (altimeter): 30.00 in. Hg (1016 hPa)
ob: LDSP 191430Z 26009KT 220V280 9999 SCT060 15/04 Q1016 NOSIG
cycle: 14

Station Type Date Time Source
LDSP TAF 2020/02/19 12:30 UTC NOAA

TAF LDSP 191125Z 1912/2012 35006KT 9999 SCT050 TX15/1912Z TN07/2003Z PROB30
TEMPO 1912/1916 23008KT PROB40
TEMPO 1918/2000 31012KT RA BKN030
BECMG 1923/2001 05012KT
TEMPO 2002/2007 05017G30KT

Example: see airport list